createdAt,value
2022-08-19T00:00:41.247Z,962.70
2022-08-19T00:01:41.194Z,962.71
2022-08-19T00:02:50.814Z,962.66
2022-08-19T00:03:41.076Z,962.68
2022-08-19T00:04:41.123Z,962.64
2022-08-19T00:05:40.974Z,962.65
2022-08-19T00:06:40.918Z,962.61
2022-08-19T00:07:50.253Z,962.62
2022-08-19T00:08:42.855Z,962.60
2022-08-19T00:09:40.753Z,962.62
2022-08-19T00:10:40.718Z,962.63
2022-08-19T00:11:40.658Z,962.61
2022-08-19T00:12:43.915Z,962.62
2022-08-19T00:13:40.559Z,962.60
2022-08-19T00:14:40.524Z,962.57
2022-08-19T00:15:40.466Z,962.62
2022-08-19T00:16:40.427Z,962.56
2022-08-19T00:17:42.095Z,962.59
2022-08-19T00:18:40.334Z,962.58
2022-08-19T00:19:40.279Z,962.61
2022-08-19T00:20:40.220Z,962.60
2022-08-19T00:21:40.171Z,962.57
2022-08-19T00:22:40.119Z,962.56
2022-08-19T00:23:40.071Z,962.53
2022-08-19T00:24:40.051Z,962.53
2022-08-19T00:25:39.972Z,962.48
2022-08-19T00:26:39.954Z,962.47
2022-08-19T00:27:39.878Z,962.49
2022-08-19T00:28:39.833Z,962.46
2022-08-19T00:29:39.780Z,962.45
2022-08-19T00:30:39.779Z,962.47
2022-08-19T00:31:39.682Z,962.51
2022-08-19T00:32:39.633Z,962.52
2022-08-19T00:33:39.587Z,962.49
2022-08-19T00:34:39.535Z,962.45
2022-08-19T00:35:39.504Z,962.44
2022-08-19T00:36:39.441Z,962.45
2022-08-19T00:37:39.410Z,962.42
2022-08-19T00:38:39.344Z,962.40
2022-08-19T00:39:39.314Z,962.44
2022-08-19T00:40:39.274Z,962.42
2022-08-19T00:41:39.203Z,962.44
2022-08-19T00:42:39.149Z,962.45
2022-08-19T00:43:39.100Z,962.45
2022-08-19T00:44:39.055Z,962.48
2022-08-19T00:45:39.018Z,962.46
2022-08-19T00:46:38.952Z,962.46
2022-08-19T00:47:38.904Z,962.46
2022-08-19T00:48:38.856Z,962.45
2022-08-19T00:49:38.808Z,962.47
2022-08-19T00:50:38.773Z,962.45
2022-08-19T00:51:38.709Z,962.43
2022-08-19T00:52:38.661Z,962.43
2022-08-19T00:53:38.612Z,962.44
2022-08-19T00:54:38.566Z,962.46
2022-08-19T00:55:38.529Z,962.45
2022-08-19T00:56:38.484Z,962.42
2022-08-19T00:57:38.421Z,962.39
2022-08-19T00:58:38.369Z,962.37
2022-08-19T00:59:56.104Z,962.33
2022-08-19T01:00:38.301Z,962.26
2022-08-19T01:01:38.293Z,962.26
2022-08-19T01:02:38.174Z,962.26
2022-08-19T01:03:40.273Z,962.23
2022-08-19T01:04:38.076Z,962.24
2022-08-19T01:05:38.046Z,962.21
2022-08-19T01:06:37.979Z,962.19
2022-08-19T01:07:38.436Z,962.16
2022-08-19T01:08:37.880Z,962.14
2022-08-19T01:09:37.833Z,962.12
2022-08-19T01:10:37.782Z,962.15
2022-08-19T01:11:37.770Z,962.17
2022-08-19T01:12:37.689Z,962.20
2022-08-19T01:13:44.526Z,962.23
2022-08-19T01:14:37.590Z,962.30
2022-08-19T01:15:37.564Z,962.30
2022-08-19T01:16:37.522Z,962.35
2022-08-19T01:17:37.458Z,962.35
2022-08-19T01:18:37.391Z,962.37
2022-08-19T01:19:43.406Z,962.35
2022-08-19T01:20:37.309Z,962.38
2022-08-19T01:21:37.247Z,962.41
2022-08-19T01:22:37.210Z,962.41
2022-08-19T01:23:37.149Z,962.38
2022-08-19T01:24:37.102Z,962.42
2022-08-19T01:25:37.049Z,962.45
2022-08-19T01:26:37.002Z,962.40
2022-08-19T01:27:43.126Z,962.41
2022-08-19T01:28:40.231Z,962.38
2022-08-19T01:29:36.854Z,962.35
2022-08-19T01:30:36.806Z,962.37
2022-08-19T01:31:36.756Z,962.38
2022-08-19T01:32:36.710Z,962.35
2022-08-19T01:33:36.665Z,962.31
2022-08-19T01:34:36.644Z,962.36
2022-08-19T01:35:36.568Z,962.29
2022-08-19T01:36:36.526Z,962.26
2022-08-19T01:37:36.468Z,962.25
2022-08-19T01:38:36.426Z,962.23
2022-08-19T01:39:36.411Z,962.26
2022-08-19T01:40:36.338Z,962.25
2022-08-19T01:41:36.273Z,962.27
2022-08-19T01:42:36.220Z,962.23
2022-08-19T01:43:36.170Z,962.21
2022-08-19T01:44:36.120Z,962.17
2022-08-19T01:45:36.082Z,962.19
2022-08-19T01:46:36.043Z,962.16
2022-08-19T01:47:35.974Z,962.16
2022-08-19T01:48:35.928Z,962.12
2022-08-19T01:49:35.879Z,962.16
2022-08-19T01:50:35.829Z,962.18
2022-08-19T01:51:39.771Z,962.17
2022-08-19T01:52:35.746Z,962.22
2022-08-19T01:53:35.698Z,962.25
2022-08-19T01:54:35.632Z,962.28
2022-08-19T01:55:35.603Z,962.28
2022-08-19T01:56:35.551Z,962.28
2022-08-19T01:57:35.488Z,962.31
2022-08-19T01:58:35.455Z,962.31
2022-08-19T01:59:35.390Z,962.30
2022-08-19T02:00:35.354Z,962.28
2022-08-19T02:01:35.393Z,962.28
2022-08-19T02:02:35.249Z,962.30
2022-08-19T02:03:35.194Z,962.29
2022-08-19T02:04:35.167Z,962.35
2022-08-19T02:05:35.096Z,962.40
2022-08-19T02:06:35.045Z,962.41
2022-08-19T02:07:34.996Z,962.39
2022-08-19T02:08:34.948Z,962.40
2022-08-19T02:09:34.914Z,962.40
2022-08-19T02:10:34.848Z,962.39
2022-08-19T02:11:34.801Z,962.39
2022-08-19T02:12:34.755Z,962.42
2022-08-19T02:13:34.702Z,962.41
2022-08-19T02:14:34.668Z,962.48
2022-08-19T02:15:35.288Z,962.51
2022-08-19T02:16:34.558Z,962.56
2022-08-19T02:17:34.513Z,962.54
2022-08-19T02:18:34.473Z,962.51
2022-08-19T02:19:34.409Z,962.56
2022-08-19T02:20:34.381Z,962.53
2022-08-19T02:21:34.312Z,962.57
2022-08-19T02:22:34.277Z,962.59
2022-08-19T02:23:34.215Z,962.58
2022-08-19T02:24:34.165Z,962.66
2022-08-19T02:25:34.115Z,962.68
2022-08-19T02:26:34.066Z,962.71
2022-08-19T02:27:34.037Z,962.68
2022-08-19T02:28:33.982Z,962.71
2022-08-19T02:29:33.919Z,962.74
2022-08-19T02:30:33.871Z,962.74
2022-08-19T02:31:33.837Z,962.75
2022-08-19T02:32:33.778Z,962.78
2022-08-19T02:33:33.737Z,962.75
2022-08-19T02:34:33.676Z,962.73
2022-08-19T02:35:33.628Z,962.74
2022-08-19T02:36:33.576Z,962.74
2022-08-19T02:37:35.042Z,962.71
2022-08-19T02:38:33.480Z,962.67
2022-08-19T02:39:33.482Z,962.59
2022-08-19T02:40:33.382Z,962.55
2022-08-19T02:41:33.347Z,962.52
2022-08-19T02:42:33.281Z,962.53
2022-08-19T02:43:34.434Z,962.50
2022-08-19T02:44:33.185Z,962.51
2022-08-19T02:45:33.135Z,962.55
2022-08-19T02:46:33.103Z,962.57
2022-08-19T02:47:33.037Z,962.56
2022-08-19T02:48:32.991Z,962.59
2022-08-19T02:49:34.553Z,962.54
2022-08-19T02:50:32.891Z,962.55
2022-08-19T02:51:32.858Z,962.52
2022-08-19T02:52:32.795Z,962.59
2022-08-19T02:53:32.745Z,962.59
2022-08-19T02:54:32.713Z,962.60
2022-08-19T02:55:32.671Z,962.59
2022-08-19T02:56:32.597Z,962.62
2022-08-19T02:57:32.560Z,962.63
2022-08-19T02:58:32.499Z,962.65
2022-08-19T02:59:32.450Z,962.65
2022-08-19T03:00:32.400Z,962.64
2022-08-19T03:01:32.411Z,962.62
2022-08-19T03:02:32.316Z,962.66
2022-08-19T03:03:32.253Z,962.61
2022-08-19T03:04:32.218Z,962.66
2022-08-19T03:05:48.199Z,962.65
2022-08-19T03:06:32.107Z,962.63
2022-08-19T03:07:32.058Z,962.68
2022-08-19T03:08:32.010Z,962.68
2022-08-19T03:09:31.960Z,962.69
2022-08-19T03:10:31.926Z,962.65
2022-08-19T03:11:31.863Z,962.72
2022-08-19T03:12:31.819Z,962.69
2022-08-19T03:13:31.780Z,962.73
2022-08-19T03:14:31.716Z,962.72
2022-08-19T03:15:31.667Z,962.71
2022-08-19T03:16:33.487Z,962.68
2022-08-19T03:17:31.568Z,962.64
2022-08-19T03:18:31.534Z,962.70
2022-08-19T03:19:31.472Z,962.71
2022-08-19T03:20:31.422Z,962.67
2022-08-19T03:21:31.373Z,962.73
2022-08-19T03:22:31.323Z,962.70
2022-08-19T03:23:31.289Z,962.75
2022-08-19T03:24:31.226Z,962.79
2022-08-19T03:25:31.177Z,962.80
2022-08-19T03:26:31.129Z,962.77
2022-08-19T03:27:34.251Z,962.79
2022-08-19T03:28:31.046Z,962.77
2022-08-19T03:29:31.641Z,962.75
2022-08-19T03:30:30.930Z,962.73
2022-08-19T03:31:43.613Z,962.63
2022-08-19T03:32:32.915Z,962.66
2022-08-19T03:33:30.783Z,962.62
2022-08-19T03:34:30.736Z,962.64
2022-08-19T03:35:30.686Z,962.62
2022-08-19T03:36:30.638Z,962.61
2022-08-19T03:37:30.604Z,962.62
2022-08-19T03:38:30.553Z,962.63
2022-08-19T03:39:30.513Z,962.65
2022-08-19T03:40:30.441Z,962.67
2022-08-19T03:41:34.235Z,962.72
2022-08-19T03:42:38.677Z,962.72
2022-08-19T03:43:30.293Z,962.80
2022-08-19T03:44:30.247Z,962.80
2022-08-19T03:45:30.197Z,962.82
2022-08-19T03:46:30.162Z,962.80
2022-08-19T03:47:30.100Z,962.80
2022-08-19T03:48:30.051Z,962.82
2022-08-19T03:49:30.001Z,962.78
2022-08-19T03:50:29.951Z,962.79
2022-08-19T03:51:30.712Z,962.80
2022-08-19T03:52:29.853Z,962.80
2022-08-19T03:53:29.805Z,962.81
2022-08-19T03:54:29.769Z,962.81
2022-08-19T03:55:29.711Z,962.83
2022-08-19T03:56:29.668Z,962.81
2022-08-19T03:57:32.241Z,962.82
2022-08-19T03:58:29.560Z,962.78
2022-08-19T03:59:29.524Z,962.78
2022-08-19T04:00:29.461Z,962.80
2022-08-19T04:01:34.819Z,962.78
2022-08-19T04:02:29.363Z,962.73
2022-08-19T04:03:29.314Z,962.75
2022-08-19T04:04:29.514Z,962.74
2022-08-19T04:05:29.216Z,962.76
2022-08-19T04:06:29.185Z,962.72
2022-08-19T04:07:29.145Z,962.71
2022-08-19T04:08:29.071Z,962.72
2022-08-19T04:09:29.021Z,962.71
2022-08-19T04:10:28.969Z,962.72
2022-08-19T04:11:43.261Z,962.72
2022-08-19T04:12:28.872Z,962.74
2022-08-19T04:13:28.841Z,962.74
2022-08-19T04:14:28.776Z,962.72
2022-08-19T04:15:28.729Z,962.76
2022-08-19T04:16:28.688Z,962.76
2022-08-19T04:17:28.628Z,962.75
2022-08-19T04:18:28.591Z,962.70
2022-08-19T04:19:28.529Z,962.70
2022-08-19T04:20:28.481Z,962.72
2022-08-19T04:21:28.446Z,962.71
2022-08-19T04:22:28.383Z,962.71
2022-08-19T04:23:28.365Z,962.75
2022-08-19T04:24:28.287Z,962.69
2022-08-19T04:25:28.237Z,962.67
2022-08-19T04:26:28.189Z,962.73
2022-08-19T04:27:28.161Z,962.69
2022-08-19T04:28:28.087Z,962.68
2022-08-19T04:29:28.064Z,962.69
2022-08-19T04:30:27.989Z,962.66
2022-08-19T04:31:27.959Z,962.69
2022-08-19T04:32:27.894Z,962.66
2022-08-19T04:33:28.617Z,962.69
2022-08-19T04:34:27.791Z,962.64
2022-08-19T04:35:27.745Z,962.60
2022-08-19T04:36:27.697Z,962.61
2022-08-19T04:37:35.492Z,962.58
2022-08-19T04:38:27.596Z,962.63
2022-08-19T04:39:27.563Z,962.60
2022-08-19T04:40:27.500Z,962.61
2022-08-19T04:41:27.449Z,962.63
2022-08-19T04:42:30.753Z,962.61
2022-08-19T04:43:27.353Z,962.57
2022-08-19T04:44:27.318Z,962.61
2022-08-19T04:45:27.254Z,962.62
2022-08-19T04:46:39.988Z,962.59
2022-08-19T04:47:48.038Z,962.60
2022-08-19T04:48:27.913Z,962.59
2022-08-19T04:49:27.059Z,962.57
2022-08-19T04:50:27.013Z,962.61
2022-08-19T04:51:26.961Z,962.64
2022-08-19T04:52:26.927Z,962.66
2022-08-19T04:53:26.862Z,962.64
2022-08-19T04:54:38.308Z,962.63
2022-08-19T04:55:26.914Z,962.63
2022-08-19T04:56:26.718Z,962.64
2022-08-19T04:57:26.665Z,962.70
2022-08-19T04:58:26.635Z,962.71
2022-08-19T04:59:26.567Z,962.72
2022-08-19T05:00:26.520Z,962.75
2022-08-19T05:01:26.521Z,962.77
2022-08-19T05:02:26.428Z,962.78
2022-08-19T05:03:30.127Z,962.72
2022-08-19T05:04:26.324Z,962.77
2022-08-19T05:05:26.273Z,962.73
2022-08-19T05:06:26.227Z,962.72
2022-08-19T05:07:26.175Z,962.79
2022-08-19T05:08:31.300Z,962.78
2022-08-19T05:09:26.086Z,962.82
2022-08-19T05:10:26.034Z,962.84
2022-08-19T05:11:26.629Z,962.91
2022-08-19T05:12:28.927Z,962.93
2022-08-19T05:13:25.885Z,962.92
2022-08-19T05:14:25.844Z,962.94
2022-08-19T05:15:25.785Z,962.99
2022-08-19T05:16:25.752Z,962.98
2022-08-19T05:17:28.463Z,963.03
2022-08-19T05:18:25.650Z,963.04
2022-08-19T05:19:25.586Z,963.03
2022-08-19T05:20:25.537Z,963.06
2022-08-19T05:21:25.490Z,963.04
2022-08-19T05:22:25.458Z,963.02
2022-08-19T05:23:25.407Z,963.03
2022-08-19T05:24:25.373Z,963.02
2022-08-19T05:25:25.305Z,963.05
2022-08-19T05:26:25.244Z,963.10
2022-08-19T05:27:25.196Z,963.15
2022-08-19T05:28:25.146Z,963.16
2022-08-19T05:29:25.113Z,963.17
2022-08-19T05:30:42.175Z,963.13
2022-08-19T05:31:25.039Z,963.16
2022-08-19T05:32:24.950Z,963.14
2022-08-19T05:33:24.918Z,963.09
2022-08-19T05:34:24.854Z,963.09
2022-08-19T05:35:24.807Z,963.04
2022-08-19T05:36:24.773Z,963.05
2022-08-19T05:37:24.704Z,963.07
2022-08-19T05:38:24.672Z,963.04
2022-08-19T05:39:24.635Z,963.08
2022-08-19T05:40:24.558Z,963.09
2022-08-19T05:41:24.509Z,963.08
2022-08-19T05:42:24.459Z,963.12
2022-08-19T05:43:24.429Z,963.09
2022-08-19T05:44:24.363Z,963.08
2022-08-19T05:45:24.313Z,963.07
2022-08-19T05:46:27.751Z,963.05
2022-08-19T05:47:24.215Z,963.09
2022-08-19T05:48:24.196Z,963.11
2022-08-19T05:49:24.119Z,963.14
2022-08-19T05:50:24.067Z,963.16
2022-08-19T05:51:27.304Z,963.19
2022-08-19T05:52:25.437Z,963.18
2022-08-19T05:53:23.942Z,963.22
2022-08-19T05:54:23.874Z,963.17
2022-08-19T05:55:23.824Z,963.21
2022-08-19T05:56:23.776Z,963.19
2022-08-19T05:57:23.737Z,963.25
2022-08-19T05:58:24.489Z,963.22
2022-08-19T05:59:23.865Z,963.23
2022-08-19T06:00:24.812Z,963.19
2022-08-19T06:01:23.530Z,963.15
2022-08-19T06:02:23.556Z,963.18
2022-08-19T06:03:23.447Z,963.19
2022-08-19T06:04:23.472Z,963.18
2022-08-19T06:05:23.352Z,963.16
2022-08-19T06:06:23.292Z,963.20
2022-08-19T06:07:23.320Z,963.20
2022-08-19T06:08:34.234Z,963.19
2022-08-19T06:09:23.142Z,963.22
2022-08-19T06:10:23.105Z,963.20
2022-08-19T06:11:23.046Z,963.26
2022-08-19T06:12:22.995Z,963.31
2022-08-19T06:13:22.947Z,963.30
2022-08-19T06:14:27.710Z,963.31
2022-08-19T06:15:22.862Z,963.33
2022-08-19T06:16:22.800Z,963.33
2022-08-19T06:17:22.750Z,963.34
2022-08-19T06:18:22.728Z,963.37
2022-08-19T06:19:22.668Z,963.46
2022-08-19T06:20:39.891Z,963.40
2022-08-19T06:21:22.557Z,963.45
2022-08-19T06:22:22.509Z,963.44
2022-08-19T06:23:24.330Z,963.51
2022-08-19T06:24:22.413Z,963.51
2022-08-19T06:25:22.379Z,963.54
2022-08-19T06:26:22.312Z,963.54
2022-08-19T06:27:22.291Z,963.58
2022-08-19T06:28:22.670Z,963.57
2022-08-19T06:29:23.765Z,963.62
2022-08-19T06:30:22.119Z,963.61
2022-08-19T06:31:22.069Z,963.62
2022-08-19T06:32:22.034Z,963.61
2022-08-19T06:33:21.976Z,963.63
2022-08-19T06:34:21.933Z,963.60
2022-08-19T06:35:21.875Z,963.61
2022-08-19T06:36:21.861Z,963.61
2022-08-19T06:37:21.780Z,963.55
2022-08-19T06:38:21.732Z,963.53
2022-08-19T06:39:21.685Z,963.54
2022-08-19T06:40:21.669Z,963.54
2022-08-19T06:41:21.603Z,963.53
2022-08-19T06:42:21.696Z,963.56
2022-08-19T06:43:21.491Z,963.56
2022-08-19T06:44:21.456Z,963.58
2022-08-19T06:45:21.420Z,963.61
2022-08-19T06:46:21.341Z,963.68
2022-08-19T06:47:23.183Z,963.75
2022-08-19T06:48:21.247Z,963.74
2022-08-19T06:49:21.201Z,963.82
2022-08-19T06:50:21.160Z,963.85
2022-08-19T06:51:21.171Z,963.84
2022-08-19T06:52:21.058Z,963.81
2022-08-19T06:53:21.010Z,963.84
2022-08-19T06:54:20.959Z,963.79
2022-08-19T06:55:20.915Z,963.81
2022-08-19T06:56:20.876Z,963.83
2022-08-19T06:57:20.828Z,963.83
2022-08-19T06:58:20.767Z,963.82
2022-08-19T06:59:20.717Z,963.81
2022-08-19T07:00:20.694Z,963.86
2022-08-19T07:01:20.639Z,963.88
2022-08-19T07:02:20.577Z,963.87
2022-08-19T07:03:20.527Z,963.87
2022-08-19T07:04:20.487Z,963.89
2022-08-19T07:05:20.431Z,963.86
2022-08-19T07:06:41.122Z,963.87
2022-08-19T07:07:21.321Z,963.86
2022-08-19T07:08:20.404Z,963.87
2022-08-19T07:09:20.239Z,963.89
2022-08-19T07:10:20.191Z,963.87
2022-08-19T07:11:20.162Z,963.87
2022-08-19T07:12:20.093Z,963.89
2022-08-19T07:13:20.045Z,963.87
2022-08-19T07:14:20.298Z,963.85
2022-08-19T07:15:19.964Z,963.83
2022-08-19T07:16:19.915Z,963.83
2022-08-19T07:17:19.874Z,963.83
2022-08-19T07:18:19.807Z,963.82
2022-08-19T07:19:19.772Z,963.81
2022-08-19T07:20:19.712Z,963.80
2022-08-19T07:21:19.684Z,963.86
2022-08-19T07:22:19.629Z,963.84
2022-08-19T07:23:19.572Z,963.86
2022-08-19T07:24:19.527Z,963.88
2022-08-19T07:25:19.474Z,963.85
2022-08-19T07:26:19.425Z,963.87
2022-08-19T07:27:19.388Z,963.87
2022-08-19T07:28:24.031Z,963.88
2022-08-19T07:29:19.294Z,963.88
2022-08-19T07:30:19.235Z,963.91
2022-08-19T07:31:22.764Z,963.94
2022-08-19T07:32:19.135Z,963.98
2022-08-19T07:33:19.089Z,963.99
2022-08-19T07:34:19.040Z,964.03
2022-08-19T07:35:18.993Z,964.02
2022-08-19T07:36:18.963Z,964.08
2022-08-19T07:37:18.897Z,964.09
2022-08-19T07:38:18.850Z,964.09
2022-08-19T07:39:18.800Z,964.11
2022-08-19T07:40:18.757Z,964.09
2022-08-19T07:41:18.712Z,964.10
2022-08-19T07:42:18.671Z,964.09
2022-08-19T07:43:18.621Z,964.09
2022-08-19T07:44:18.578Z,964.10
2022-08-19T07:45:18.515Z,964.15
2022-08-19T07:46:18.470Z,964.15
2022-08-19T07:47:49.048Z,964.15
2022-08-19T07:48:18.395Z,964.11
2022-08-19T07:49:18.325Z,964.12
2022-08-19T07:50:18.276Z,964.13
2022-08-19T07:51:28.697Z,964.15
2022-08-19T07:52:18.195Z,964.15
2022-08-19T07:53:18.138Z,964.15
2022-08-19T07:54:18.086Z,964.16
2022-08-19T07:55:40.321Z,964.14
2022-08-19T07:56:17.992Z,964.11
2022-08-19T07:57:17.961Z,964.06
2022-08-19T07:58:17.895Z,964.11
2022-08-19T07:59:17.849Z,964.14
2022-08-19T08:00:21.678Z,964.16
2022-08-19T08:01:17.823Z,964.21
2022-08-19T08:02:17.704Z,964.23
2022-08-19T08:03:17.656Z,964.23
2022-08-19T08:04:17.608Z,964.26
2022-08-19T08:05:17.566Z,964.22
2022-08-19T08:06:17.528Z,964.23
2022-08-19T08:07:17.468Z,964.21
2022-08-19T08:08:17.437Z,964.20
2022-08-19T08:09:17.400Z,964.20
2022-08-19T08:10:21.055Z,964.18
2022-08-19T08:11:17.996Z,964.14
2022-08-19T08:12:32.911Z,964.11
2022-08-19T08:13:17.280Z,964.13
2022-08-19T08:14:29.526Z,964.08
2022-08-19T08:15:17.115Z,964.10
2022-08-19T08:16:17.056Z,964.14
2022-08-19T08:17:16.992Z,964.19
2022-08-19T08:18:16.944Z,964.22
2022-08-19T08:19:25.593Z,964.23
2022-08-19T08:20:16.863Z,964.26
2022-08-19T08:21:16.818Z,964.23
2022-08-19T08:22:16.756Z,964.23
2022-08-19T08:23:16.707Z,964.23
2022-08-19T08:24:16.659Z,964.24
2022-08-19T08:25:16.611Z,964.25
2022-08-19T08:26:16.583Z,964.26
2022-08-19T08:27:16.517Z,964.26
2022-08-19T08:28:17.693Z,964.28
2022-08-19T08:29:16.423Z,964.30
2022-08-19T08:30:16.388Z,964.36
2022-08-19T08:31:16.328Z,964.34
2022-08-19T08:32:16.282Z,964.34
2022-08-19T08:34:16.202Z,964.32
2022-08-19T08:35:16.153Z,964.29
2022-08-19T08:36:16.095Z,964.32
2022-08-19T08:37:16.247Z,964.32
2022-08-19T08:38:16.013Z,964.33
2022-08-19T08:39:16.060Z,964.34
2022-08-19T08:40:15.985Z,964.34
2022-08-19T08:41:15.857Z,964.34
2022-08-19T08:42:18.051Z,964.34
2022-08-19T08:43:15.763Z,964.35
2022-08-19T08:44:17.186Z,964.39
2022-08-19T08:45:15.672Z,964.39
2022-08-19T08:46:15.623Z,964.43
2022-08-19T08:47:15.580Z,964.44
2022-08-19T08:48:22.237Z,964.37
2022-08-19T08:49:15.502Z,964.39
2022-08-19T08:50:15.437Z,964.42
2022-08-19T08:51:15.394Z,964.43
2022-08-19T08:52:15.344Z,964.42
2022-08-19T08:53:15.299Z,964.44
2022-08-19T08:54:15.269Z,964.38
2022-08-19T08:55:15.208Z,964.43
2022-08-19T08:56:17.013Z,964.43
2022-08-19T08:57:15.112Z,964.46
2022-08-19T08:58:15.082Z,964.45
2022-08-19T08:59:15.039Z,964.45
2022-08-19T09:00:15.534Z,964.47
2022-08-19T09:01:14.980Z,964.42
2022-08-19T09:02:14.908Z,964.45
2022-08-19T09:03:14.840Z,964.47
2022-08-19T09:04:14.793Z,964.46
2022-08-19T09:05:16.342Z,964.45
2022-08-19T09:06:14.700Z,964.51
2022-08-19T09:07:18.630Z,964.54
2022-08-19T09:08:14.624Z,964.58
2022-08-19T09:09:14.562Z,964.59
2022-08-19T09:10:14.516Z,964.62
2022-08-19T09:11:14.473Z,964.66
2022-08-19T09:12:14.445Z,964.62
2022-08-19T09:13:14.405Z,964.64
2022-08-19T09:14:34.928Z,964.60
2022-08-19T09:15:14.291Z,964.63
2022-08-19T09:16:14.261Z,964.64
2022-08-19T09:17:14.216Z,964.63
2022-08-19T09:18:15.326Z,964.63
2022-08-19T09:19:14.110Z,964.63
2022-08-19T09:20:14.064Z,964.66
2022-08-19T09:21:14.020Z,964.69
2022-08-19T09:22:13.987Z,964.65
2022-08-19T09:23:13.926Z,964.61
2022-08-19T09:24:13.883Z,964.60
2022-08-19T09:25:13.838Z,964.56
2022-08-19T09:26:13.809Z,964.60
2022-08-19T09:27:18.469Z,964.60
2022-08-19T09:28:22.224Z,964.61
2022-08-19T09:29:13.658Z,964.62
2022-08-19T09:30:13.636Z,964.62
2022-08-19T09:31:13.584Z,964.59
2022-08-19T09:32:26.928Z,964.57
2022-08-19T09:33:13.479Z,964.59
2022-08-19T09:34:21.460Z,964.65
2022-08-19T09:35:13.392Z,964.63
2022-08-19T09:36:13.343Z,964.57
2022-08-19T09:37:13.317Z,964.62
2022-08-19T09:38:13.270Z,964.67
2022-08-19T09:39:14.852Z,964.64
2022-08-19T09:40:13.252Z,964.63
2022-08-19T09:41:13.120Z,964.61
2022-08-19T09:42:16.105Z,964.58
2022-08-19T09:43:13.575Z,964.62
2022-08-19T09:44:12.981Z,964.62
2022-08-19T09:45:12.945Z,964.63
2022-08-19T09:46:15.704Z,964.60
2022-08-19T09:47:12.852Z,964.64
2022-08-19T09:48:18.991Z,964.64
2022-08-19T09:49:12.771Z,964.60
2022-08-19T09:50:16.591Z,964.61
2022-08-19T09:51:12.670Z,964.66
2022-08-19T09:52:13.648Z,964.64
2022-08-19T09:53:12.592Z,964.61
2022-08-19T09:54:12.535Z,964.60
2022-08-19T09:55:12.491Z,964.59
2022-08-19T09:56:12.461Z,964.57
2022-08-19T09:57:12.403Z,964.61
2022-08-19T09:58:12.371Z,964.56
2022-08-19T09:59:12.316Z,964.59
2022-08-19T10:00:12.269Z,964.52
2022-08-19T10:01:12.321Z,964.56
2022-08-19T10:02:12.183Z,964.53
2022-08-19T10:03:12.152Z,964.61
2022-08-19T10:04:19.776Z,964.57
2022-08-19T10:05:23.239Z,964.56
2022-08-19T10:06:14.966Z,964.52
2022-08-19T10:07:12.005Z,964.52
2022-08-19T10:08:13.838Z,964.49
2022-08-19T10:09:11.921Z,964.59
2022-08-19T10:10:11.900Z,964.58
2022-08-19T10:11:27.441Z,964.52
2022-08-19T10:12:11.779Z,964.50
2022-08-19T10:13:11.741Z,964.52
2022-08-19T10:14:11.719Z,964.45
2022-08-19T10:15:11.678Z,964.49
2022-08-19T10:16:11.598Z,964.46
2022-08-19T10:17:17.456Z,964.47
2022-08-19T10:18:11.532Z,964.47
2022-08-19T10:19:11.503Z,964.48
2022-08-19T10:20:11.455Z,964.50
2022-08-19T10:21:11.592Z,964.51
2022-08-19T10:22:12.376Z,964.53
2022-08-19T10:23:11.322Z,964.56
2022-08-19T10:24:11.290Z,964.54
2022-08-19T10:25:11.219Z,964.57
2022-08-19T10:26:12.064Z,964.57
2022-08-19T10:27:11.962Z,964.60
2022-08-19T10:28:11.122Z,964.58
2022-08-19T10:29:11.078Z,964.60
2022-08-19T10:30:11.320Z,964.56
2022-08-19T10:31:11.000Z,964.59
2022-08-19T10:32:10.931Z,964.57
2022-08-19T10:33:11.426Z,964.57
2022-08-19T10:34:17.565Z,964.49
2022-08-19T10:35:10.859Z,964.52
2022-08-19T10:36:10.754Z,964.55
2022-08-19T10:37:10.922Z,964.54
2022-08-19T10:38:10.700Z,964.49
2022-08-19T10:39:10.659Z,964.48
2022-08-19T10:40:10.695Z,964.49
2022-08-19T10:41:10.813Z,964.41
2022-08-19T10:42:10.557Z,964.44
2022-08-19T10:43:10.482Z,964.44
2022-08-19T10:44:10.490Z,964.42
2022-08-19T10:45:10.418Z,964.48
2022-08-19T10:46:14.192Z,964.45
2022-08-19T10:47:17.197Z,964.41
2022-08-19T10:48:12.247Z,964.41
2022-08-19T10:49:10.238Z,964.43
2022-08-19T10:50:11.754Z,964.41
2022-08-19T10:51:10.166Z,964.41
2022-08-19T10:52:10.125Z,964.41
2022-08-19T10:53:10.100Z,964.40
2022-08-19T10:54:12.548Z,964.44
2022-08-19T10:55:10.039Z,964.47
2022-08-19T10:56:09.977Z,964.43
2022-08-19T10:57:09.931Z,964.41
2022-08-19T10:58:10.210Z,964.40
2022-08-19T10:59:09.860Z,964.39
2022-08-19T11:00:09.830Z,964.36
2022-08-19T11:01:09.812Z,964.35
2022-08-19T11:02:09.750Z,964.36
2022-08-19T11:03:09.789Z,964.40
2022-08-19T11:04:09.628Z,964.29
2022-08-19T11:05:12.720Z,964.29
2022-08-19T11:06:09.564Z,964.26
2022-08-19T11:07:09.517Z,964.36
2022-08-19T11:08:21.194Z,964.32
2022-08-19T11:09:09.484Z,964.32
2022-08-19T11:10:13.031Z,964.30
2022-08-19T11:11:09.368Z,964.35
2022-08-19T11:12:09.318Z,964.35
2022-08-19T11:13:09.320Z,964.31
2022-08-19T11:14:09.282Z,964.40
2022-08-19T11:15:09.184Z,964.42
2022-08-19T11:16:09.198Z,964.40
2022-08-19T11:17:09.145Z,964.38
2022-08-19T11:18:09.079Z,964.33
2022-08-19T11:19:09.075Z,964.35
2022-08-19T11:20:08.988Z,964.35
2022-08-19T11:21:08.965Z,964.39
2022-08-19T11:22:08.936Z,964.28
2022-08-19T11:23:08.890Z,964.30
2022-08-19T11:24:08.884Z,964.33
2022-08-19T11:25:08.829Z,964.30
2022-08-19T11:26:08.791Z,964.27
2022-08-19T11:27:08.722Z,964.35
2022-08-19T11:28:08.682Z,964.34
2022-08-19T11:29:08.688Z,964.34
2022-08-19T11:30:08.649Z,964.34
2022-08-19T11:31:08.587Z,964.37
2022-08-19T11:32:08.537Z,964.36
2022-08-19T11:33:08.490Z,964.35
2022-08-19T11:34:08.423Z,964.37
2022-08-19T11:35:08.425Z,964.39
2022-08-19T11:36:08.367Z,964.39
2022-08-19T11:37:08.321Z,964.37
2022-08-19T11:38:09.855Z,964.35
2022-08-19T11:39:08.243Z,964.38
2022-08-19T11:40:08.250Z,964.41
2022-08-19T11:41:08.189Z,964.40
2022-08-19T11:42:08.107Z,964.34
2022-08-19T11:43:08.067Z,964.37
2022-08-19T11:44:08.033Z,964.32
2022-08-19T11:45:08.049Z,964.28
2022-08-19T11:46:08.053Z,964.23
2022-08-19T11:47:08.808Z,964.22
2022-08-19T11:48:07.873Z,964.19
2022-08-19T11:49:11.896Z,964.20
2022-08-19T11:50:07.825Z,964.23
2022-08-19T11:51:07.760Z,964.24
2022-08-19T11:52:07.735Z,964.18
2022-08-19T11:53:07.682Z,964.17
2022-08-19T11:54:07.634Z,964.20
2022-08-19T11:55:07.705Z,964.13
2022-08-19T11:56:07.559Z,964.11
2022-08-19T11:57:07.587Z,964.13
2022-08-19T11:58:07.527Z,964.14
2022-08-19T11:59:10.435Z,964.11
2022-08-19T12:00:07.457Z,964.12
2022-08-19T12:01:07.356Z,964.09
2022-08-19T12:02:07.318Z,964.15
2022-08-19T12:03:07.317Z,964.13
2022-08-19T12:04:07.239Z,964.16
2022-08-19T12:05:12.029Z,964.14
2022-08-19T12:06:07.173Z,964.17
2022-08-19T12:07:07.095Z,964.15
2022-08-19T12:08:07.100Z,964.20
2022-08-19T12:09:07.027Z,964.16
2022-08-19T12:10:06.993Z,964.14
2022-08-19T12:11:06.950Z,964.09
2022-08-19T12:12:06.903Z,964.12
2022-08-19T12:13:06.898Z,964.10
2022-08-19T12:14:06.830Z,964.08
2022-08-19T12:15:06.843Z,964.02
2022-08-19T12:16:06.746Z,964.02
2022-08-19T12:17:06.705Z,964.02
2022-08-19T12:18:06.703Z,964.00
2022-08-19T12:19:06.618Z,964.02
2022-08-19T12:20:06.595Z,964.02
2022-08-19T12:21:06.557Z,964.03
2022-08-19T12:22:06.521Z,963.99
2022-08-19T12:23:06.495Z,964.00
2022-08-19T12:24:06.827Z,964.00
2022-08-19T12:25:06.497Z,964.04
2022-08-19T12:26:06.372Z,964.00
2022-08-19T12:27:06.312Z,963.99
2022-08-19T12:28:06.267Z,963.97
2022-08-19T12:29:06.257Z,963.94